West Akron, Ohio
Current Conditions -  °F | °C
As of 6:54 AM on Friday 21 Nov 2014 (Local Time) from KAKR Reporting Station
Broken Clouds Broken Clouds  
Wind Chill:   Ceiling: 4800
Heat Index: 15°   Visibility: 8mi
Dew Point: 10°   Wind: 8mph
Humidity: 80%   Direction: 250°WSW
Pressure: 30.34"   Gusts: NA
Location:  41.0707°N, 81.5458°W
Report Text: KAKR 211154Z AUTO 25007KT 8SM FEW036 BKN048 M09/M12 A3034 RMK AO2 SLP290 T10941122 11072 21117 53033 $
Loading
Personal Weather Stations






























Interactive Weather Map New forecast layout! Learn more

10-Day Weather Forecast

Advertisements
Track Severe Weather on mobile